createdAt,value
2017-08-18T00:00:18.466Z,19.36
2017-08-18T00:02:45.864Z,19.35
2017-08-18T00:05:13.270Z,19.30
2017-08-18T00:07:40.666Z,19.29
2017-08-18T00:10:08.078Z,19.24
2017-08-18T00:12:35.523Z,19.22
2017-08-18T00:15:02.899Z,19.17
2017-08-18T00:17:30.298Z,19.20
2017-08-18T00:19:57.694Z,19.21
2017-08-18T00:22:25.149Z,19.20
2017-08-18T00:24:52.545Z,19.15
2017-08-18T00:27:19.939Z,19.15
2017-08-18T00:29:47.344Z,19.18
2017-08-18T00:32:14.742Z,19.27
2017-08-18T00:34:42.146Z,19.31
2017-08-18T00:37:09.537Z,19.36
2017-08-18T00:39:36.940Z,19.48
2017-08-18T00:42:04.339Z,19.50
2017-08-18T00:44:31.745Z,19.52
2017-08-18T00:46:59.194Z,19.55
2017-08-18T00:49:26.590Z,19.57
2017-08-18T00:51:53.994Z,19.62
2017-08-18T00:54:21.394Z,19.66
2017-08-18T00:56:48.794Z,19.65
2017-08-18T00:59:16.302Z,19.60
2017-08-18T01:01:43.699Z,19.52
2017-08-18T01:04:11.090Z,19.42
2017-08-18T01:06:38.495Z,19.33
2017-08-18T01:09:05.894Z,19.31
2017-08-18T01:11:33.443Z,19.26
2017-08-18T01:14:00.839Z,19.18
2017-08-18T01:16:28.239Z,19.22
2017-08-18T01:18:55.638Z,19.19
2017-08-18T01:21:23.037Z,19.13
2017-08-18T01:23:50.542Z,19.11
2017-08-18T01:26:17.942Z,19.18
2017-08-18T01:28:45.347Z,19.27
2017-08-18T01:31:12.746Z,19.26
2017-08-18T01:33:40.144Z,19.28
2017-08-18T01:36:08.011Z,19.24
2017-08-18T01:38:35.411Z,19.25
2017-08-18T01:41:02.811Z,19.21
2017-08-18T01:43:30.211Z,19.20
2017-08-18T01:45:57.611Z,19.17
2017-08-18T01:48:25.014Z,19.16
2017-08-18T01:50:52.410Z,19.16
2017-08-18T01:53:19.807Z,19.15
2017-08-18T01:55:47.210Z,19.09
2017-08-18T01:58:14.658Z,19.09
2017-08-18T02:00:42.082Z,19.08
2017-08-18T02:03:09.489Z,19.08
2017-08-18T02:05:37.315Z,19.14
2017-08-18T02:08:04.739Z,19.19
2017-08-18T02:10:32.144Z,19.23
2017-08-18T02:12:59.646Z,19.28
2017-08-18T02:15:27.042Z,19.32
2017-08-18T02:17:54.891Z,19.41
2017-08-18T02:20:22.275Z,19.43
2017-08-18T02:22:49.679Z,19.54
2017-08-18T02:25:17.102Z,19.59
2017-08-18T02:27:44.513Z,19.68
2017-08-18T02:30:11.898Z,19.70
2017-08-18T02:32:39.310Z,19.70
2017-08-18T02:35:06.702Z,19.71
2017-08-18T02:37:34.098Z,19.71
2017-08-18T02:40:01.518Z,19.76
2017-08-18T02:42:28.918Z,19.82
2017-08-18T02:44:56.317Z,19.89
2017-08-18T02:47:23.742Z,19.86
2017-08-18T02:49:51.144Z,19.87
2017-08-18T02:52:18.535Z,19.87
2017-08-18T02:54:46.043Z,19.83
2017-08-18T02:57:13.439Z,19.84
2017-08-18T02:59:40.846Z,19.85
2017-08-18T03:02:08.618Z,19.75
2017-08-18T03:04:36.015Z,19.68
2017-08-18T03:07:03.416Z,19.70
2017-08-18T03:09:30.819Z,19.71
2017-08-18T03:11:58.214Z,19.59
2017-08-18T03:14:25.626Z,19.54
2017-08-18T03:16:53.030Z,19.50
2017-08-18T03:19:20.426Z,19.50
2017-08-18T03:21:47.823Z,19.50
2017-08-18T03:24:15.522Z,19.44
2017-08-18T03:26:42.918Z,19.43
2017-08-18T03:29:10.315Z,19.43
2017-08-18T03:31:37.867Z,19.45
2017-08-18T03:34:05.262Z,19.49
2017-08-18T03:36:32.654Z,19.50
2017-08-18T03:39:00.474Z,19.50
2017-08-18T03:41:27.873Z,19.46
2017-08-18T03:43:55.273Z,19.46
2017-08-18T03:46:23.058Z,19.43
2017-08-18T03:48:50.454Z,19.44
2017-08-18T03:51:17.853Z,19.44
2017-08-18T03:53:45.254Z,19.41
2017-08-18T03:56:12.650Z,19.28
2017-08-18T03:58:40.043Z,19.22
2017-08-18T04:01:07.598Z,19.17
2017-08-18T04:03:34.982Z,19.13
2017-08-18T04:06:02.381Z,19.14
2017-08-18T04:08:29.821Z,19.12
2017-08-18T04:10:57.223Z,19.05
2017-08-18T04:13:24.617Z,18.81
2017-08-18T04:15:52.170Z,18.48
2017-08-18T04:18:19.574Z,18.38
2017-08-18T04:20:46.966Z,18.46
2017-08-18T04:23:14.372Z,18.51
2017-08-18T04:25:41.770Z,18.34
2017-08-18T04:28:09.157Z,18.25
2017-08-18T04:30:36.566Z,18.32
2017-08-18T04:33:03.964Z,18.35
2017-08-18T04:35:31.354Z,18.42
2017-08-18T04:37:58.762Z,18.42
2017-08-18T04:40:26.155Z,18.49
2017-08-18T04:42:53.551Z,18.56
2017-08-18T04:45:21.107Z,18.60
2017-08-18T04:47:48.502Z,18.50
2017-08-18T04:50:15.905Z,18.33
2017-08-18T04:52:43.323Z,18.33
2017-08-18T04:55:10.723Z,18.31
2017-08-18T04:57:38.123Z,18.32
2017-08-18T05:00:05.580Z,18.37
2017-08-18T05:02:32.991Z,18.44
2017-08-18T05:05:00.382Z,18.49
2017-08-18T05:07:27.899Z,18.39
2017-08-18T05:09:55.295Z,18.40
2017-08-18T05:12:22.694Z,18.43
2017-08-18T05:14:50.263Z,18.40
2017-08-18T05:17:17.683Z,18.35
2017-08-18T05:19:45.074Z,18.28
2017-08-18T05:22:12.621Z,18.33
2017-08-18T05:24:40.019Z,18.27
2017-08-18T05:27:07.424Z,18.28
2017-08-18T05:29:35.034Z,18.23
2017-08-18T05:32:02.439Z,18.19
2017-08-18T05:34:29.854Z,18.09
2017-08-18T05:36:57.621Z,18.25
2017-08-18T05:39:25.010Z,18.23
2017-08-18T05:41:52.402Z,18.22
2017-08-18T05:44:20.138Z,18.23
2017-08-18T05:46:47.539Z,18.32
2017-08-18T05:49:14.955Z,18.40
2017-08-18T05:51:42.462Z,18.45
2017-08-18T05:54:09.859Z,18.48
2017-08-18T05:56:37.255Z,18.46
2017-08-18T05:59:04.686Z,18.51
2017-08-18T06:01:32.087Z,18.53
2017-08-18T06:03:59.492Z,18.58
2017-08-18T06:06:27.106Z,18.58
2017-08-18T06:08:54.518Z,18.56
2017-08-18T06:11:21.919Z,18.49
2017-08-18T06:13:49.362Z,18.45
2017-08-18T06:16:16.790Z,18.54
2017-08-18T06:18:44.191Z,18.61
2017-08-18T06:21:11.713Z,18.66
2017-08-18T06:23:39.110Z,18.69
2017-08-18T06:26:06.510Z,18.73
2017-08-18T06:28:34.218Z,18.78
2017-08-18T06:31:01.611Z,18.79
2017-08-18T06:33:29.014Z,18.82
2017-08-18T06:35:56.571Z,18.86
2017-08-18T06:38:23.967Z,18.87
2017-08-18T06:40:51.377Z,18.86
2017-08-18T06:43:18.882Z,18.86
2017-08-18T06:45:46.282Z,18.87
2017-08-18T06:48:13.678Z,18.90
2017-08-18T06:50:41.551Z,18.94
2017-08-18T06:53:08.938Z,18.97
2017-08-18T06:55:36.322Z,18.98
2017-08-18T06:58:03.742Z,19.03
2017-08-18T07:00:31.139Z,19.03
2017-08-18T07:02:58.542Z,19.05
2017-08-18T07:05:26.283Z,19.05
2017-08-18T07:07:53.688Z,19.06
2017-08-18T07:10:21.078Z,19.03
2017-08-18T07:12:48.637Z,18.91
2017-08-18T07:15:16.026Z,18.86
2017-08-18T07:17:43.640Z,18.77
2017-08-18T07:20:11.245Z,18.65
2017-08-18T07:22:38.626Z,18.56
2017-08-18T07:25:06.027Z,18.60
2017-08-18T07:27:33.619Z,18.61
2017-08-18T07:30:01.026Z,18.65
2017-08-18T07:32:28.434Z,18.65
2017-08-18T07:34:55.846Z,18.71
2017-08-18T07:37:23.242Z,18.73
2017-08-18T07:39:50.638Z,18.80
2017-08-18T07:42:18.187Z,18.90
2017-08-18T07:44:45.594Z,19.00
2017-08-18T07:47:12.986Z,19.10
2017-08-18T07:49:40.396Z,19.17
2017-08-18T07:52:07.794Z,19.24
2017-08-18T07:54:35.190Z,19.26
2017-08-18T07:57:03.095Z,19.29
2017-08-18T07:59:30.495Z,19.28
2017-08-18T08:01:57.886Z,19.31
2017-08-18T08:04:25.464Z,19.31
2017-08-18T08:06:52.859Z,19.37
2017-08-18T08:09:20.258Z,19.38
2017-08-18T08:11:48.042Z,19.45
2017-08-18T08:14:15.434Z,19.50
2017-08-18T08:16:42.833Z,19.54
2017-08-18T08:19:10.254Z,19.64
2017-08-18T08:21:37.650Z,19.69
2017-08-18T08:24:05.046Z,19.75
2017-08-18T08:26:32.487Z,19.77
2017-08-18T08:28:59.886Z,19.84
2017-08-18T08:31:27.282Z,19.87
2017-08-18T08:33:54.718Z,19.90
2017-08-18T08:36:22.115Z,19.92
2017-08-18T08:38:49.515Z,19.94
2017-08-18T08:41:17.065Z,19.99
2017-08-18T08:43:44.463Z,20.04
2017-08-18T08:46:11.858Z,20.11
2017-08-18T08:48:39.287Z,20.19
2017-08-18T08:51:06.681Z,20.27
2017-08-18T08:53:34.081Z,20.36
2017-08-18T08:56:01.634Z,20.50
2017-08-18T08:58:29.042Z,20.64
2017-08-18T09:00:56.435Z,20.74
2017-08-18T09:03:23.855Z,20.87
2017-08-18T09:05:51.267Z,20.96
2017-08-18T09:08:18.646Z,21.03
2017-08-18T09:10:46.196Z,21.13
2017-08-18T09:13:13.595Z,21.13
2017-08-18T09:15:40.999Z,21.23
2017-08-18T09:18:08.767Z,21.42
2017-08-18T09:20:36.162Z,21.60
2017-08-18T09:23:03.559Z,21.72
2017-08-18T09:25:31.146Z,21.75
2017-08-18T09:27:58.551Z,21.80
2017-08-18T09:30:25.951Z,21.82
2017-08-18T09:32:53.718Z,21.80
2017-08-18T09:35:21.110Z,21.66
2017-08-18T09:37:48.511Z,21.50
2017-08-18T09:40:16.023Z,21.30
2017-08-18T09:42:43.419Z,21.30
2017-08-18T09:45:10.810Z,21.36
2017-08-18T09:47:38.426Z,21.32
2017-08-18T09:50:17.682Z,21.32
2017-08-18T09:55:57.192Z,21.31
2017-08-18T09:58:36.410Z,21.33
2017-08-18T10:01:03.815Z,21.28
2017-08-18T10:03:31.215Z,21.37
2017-08-18T10:05:58.633Z,21.40
2017-08-18T10:08:26.040Z,21.47
2017-08-18T10:10:53.434Z,21.50
2017-08-18T10:13:20.854Z,21.60
2017-08-18T10:15:48.251Z,21.67
2017-08-18T10:18:15.651Z,21.65
2017-08-18T10:20:43.410Z,21.63
2017-08-18T10:23:10.815Z,21.70
2017-08-18T10:25:38.202Z,21.79
2017-08-18T10:28:05.707Z,21.89
2017-08-18T10:30:33.105Z,22.04
2017-08-18T10:33:00.499Z,22.17
2017-08-18T10:35:28.186Z,22.34
2017-08-18T10:37:55.567Z,22.48
2017-08-18T10:40:22.969Z,22.63
2017-08-18T10:42:50.511Z,22.67
2017-08-18T10:45:17.895Z,22.64
2017-08-18T10:47:45.293Z,22.57
2017-08-18T10:50:13.106Z,22.60
2017-08-18T10:52:40.504Z,22.68
2017-08-18T10:55:07.899Z,22.71
2017-08-18T10:57:35.483Z,22.74
2017-08-18T11:00:02.886Z,22.83
2017-08-18T11:02:30.277Z,22.87
2017-08-18T11:04:57.730Z,22.89
2017-08-18T11:07:25.121Z,22.94
2017-08-18T11:09:52.514Z,22.88
2017-08-18T11:12:19.950Z,22.86
2017-08-18T11:14:47.343Z,22.89
2017-08-18T11:17:14.734Z,22.92
2017-08-18T11:19:42.274Z,22.89
2017-08-18T11:22:09.661Z,22.82
2017-08-18T11:24:37.058Z,22.77
2017-08-18T11:27:04.973Z,22.66
2017-08-18T11:29:32.364Z,22.66
2017-08-18T11:31:59.754Z,22.64
2017-08-18T11:34:27.339Z,22.71
2017-08-18T11:36:54.730Z,22.77
2017-08-18T11:39:22.123Z,22.83
2017-08-18T11:41:49.558Z,22.91
2017-08-18T11:44:16.946Z,22.95
2017-08-18T11:46:44.355Z,22.99
2017-08-18T11:49:11.770Z,23.02
2017-08-18T11:51:39.160Z,23.07
2017-08-18T11:54:06.547Z,23.09
2017-08-18T11:56:34.050Z,23.13
2017-08-18T11:59:01.435Z,23.14
2017-08-18T12:01:28.820Z,23.11
2017-08-18T12:03:56.379Z,23.16
2017-08-18T12:06:23.766Z,23.27
2017-08-18T12:08:51.157Z,23.34
2017-08-18T12:11:18.993Z,23.23
2017-08-18T12:13:46.382Z,23.09
2017-08-18T12:16:13.771Z,23.05
2017-08-18T12:18:41.178Z,22.96
2017-08-18T12:21:08.568Z,22.91
2017-08-18T12:23:35.975Z,22.87
2017-08-18T12:26:03.378Z,22.73
2017-08-18T12:28:30.763Z,22.54
2017-08-18T12:30:58.154Z,22.35
2017-08-18T12:33:25.654Z,22.27
2017-08-18T12:35:53.054Z,22.13
2017-08-18T12:38:20.446Z,21.94
2017-08-18T12:40:47.988Z,21.81
2017-08-18T12:43:15.378Z,21.65
2017-08-18T12:45:42.766Z,21.52
2017-08-18T12:48:10.187Z,21.39
2017-08-18T12:50:37.603Z,21.16
2017-08-18T12:53:05.006Z,20.86
2017-08-18T12:55:32.518Z,20.76
2017-08-18T12:57:59.931Z,20.74
2017-08-18T13:00:27.339Z,20.75
2017-08-18T13:02:54.986Z,20.93
2017-08-18T13:05:22.399Z,21.06
2017-08-18T13:07:49.798Z,21.16
2017-08-18T13:10:17.354Z,21.24
2017-08-18T13:12:44.750Z,21.37
2017-08-18T13:15:12.154Z,21.52
2017-08-18T13:17:39.709Z,21.55
2017-08-18T13:20:07.106Z,21.61
2017-08-18T13:22:34.502Z,21.65
2017-08-18T13:25:01.906Z,21.71
2017-08-18T13:27:29.299Z,21.71
2017-08-18T13:29:56.687Z,21.78
2017-08-18T13:32:24.192Z,21.83
2017-08-18T13:34:51.584Z,21.89
2017-08-18T13:37:18.974Z,21.97
2017-08-18T13:39:46.519Z,21.81
2017-08-18T13:42:13.913Z,21.76
2017-08-18T13:44:41.307Z,21.66
2017-08-18T13:47:08.724Z,21.60
2017-08-18T13:49:36.115Z,21.57
2017-08-18T13:52:03.513Z,21.53
2017-08-18T13:54:30.917Z,21.52
2017-08-18T13:56:58.319Z,21.48
2017-08-18T13:59:25.714Z,21.47
2017-08-18T14:01:53.123Z,21.40
2017-08-18T14:04:20.523Z,21.33
2017-08-18T14:06:47.918Z,21.31
2017-08-18T14:09:15.731Z,21.01
2017-08-18T14:11:43.126Z,20.98
2017-08-18T14:14:10.530Z,20.99
2017-08-18T14:16:38.307Z,20.86
2017-08-18T14:19:05.698Z,20.78
2017-08-18T14:21:33.391Z,20.46
2017-08-18T14:24:00.898Z,20.34
2017-08-18T14:29:31.078Z,20.26
2017-08-18T14:31:58.488Z,20.18
2017-08-18T14:34:25.871Z,20.04
2017-08-18T14:36:53.639Z,20.01
2017-08-18T14:39:21.035Z,19.89
2017-08-18T14:41:48.426Z,19.65
2017-08-18T14:44:15.975Z,19.63
2017-08-18T14:46:43.375Z,19.62
2017-08-18T14:49:10.762Z,19.64
2017-08-18T14:51:38.170Z,19.73
2017-08-18T14:54:05.572Z,19.71
2017-08-18T14:56:32.984Z,19.76
2017-08-18T14:59:00.496Z,19.67
2017-08-18T15:01:27.874Z,19.57
2017-08-18T15:03:55.278Z,19.56
2017-08-18T15:06:22.699Z,19.60
2017-08-18T15:08:50.087Z,19.60
2017-08-18T15:11:17.470Z,19.67
2017-08-18T15:13:44.978Z,19.72
2017-08-18T15:16:12.378Z,19.63
2017-08-18T15:18:39.784Z,19.75
2017-08-18T15:21:07.218Z,19.67
2017-08-18T15:23:34.602Z,19.61
2017-08-18T15:26:01.994Z,19.59
2017-08-18T15:28:29.498Z,19.60
2017-08-18T15:30:56.894Z,19.50
2017-08-18T15:33:24.294Z,19.65
2017-08-18T15:35:51.685Z,19.68
2017-08-18T15:38:19.083Z,19.55
2017-08-18T15:40:46.494Z,19.42
2017-08-18T15:43:14.130Z,19.48
2017-08-18T15:45:41.531Z,19.49
2017-08-18T15:48:08.926Z,19.46
2017-08-18T15:50:36.515Z,19.57
2017-08-18T15:53:03.924Z,19.44
2017-08-18T15:55:31.322Z,19.25
2017-08-18T15:57:58.735Z,19.24
2017-08-18T16:00:26.126Z,19.19
2017-08-18T16:02:53.515Z,19.11
2017-08-18T16:05:20.912Z,19.08
2017-08-18T16:07:48.309Z,19.18
2017-08-18T16:10:15.694Z,19.29
2017-08-18T16:12:43.406Z,19.27
2017-08-18T16:15:10.800Z,19.30
2017-08-18T16:17:38.187Z,19.14
2017-08-18T16:20:05.590Z,19.25
2017-08-18T16:22:32.978Z,19.41
2017-08-18T16:25:00.366Z,19.43
2017-08-18T16:27:27.803Z,19.43
2017-08-18T16:29:55.197Z,19.50
2017-08-18T16:32:22.580Z,19.41
2017-08-18T16:34:49.986Z,19.45
2017-08-18T16:37:17.378Z,19.39
2017-08-18T16:39:44.768Z,19.32
2017-08-18T16:42:12.549Z,19.27
2017-08-18T16:44:39.914Z,19.38
2017-08-18T16:47:07.307Z,19.32
2017-08-18T16:49:34.702Z,19.38
2017-08-18T16:52:02.090Z,19.38
2017-08-18T16:54:29.484Z,19.37
2017-08-18T16:56:56.921Z,19.34
2017-08-18T16:59:24.303Z,19.28
2017-08-18T17:01:51.691Z,19.23
2017-08-18T17:04:19.195Z,19.29
2017-08-18T17:06:46.580Z,19.31
2017-08-18T17:09:13.985Z,19.26
2017-08-18T17:11:41.499Z,19.26
2017-08-18T17:14:08.890Z,19.26
2017-08-18T17:16:36.288Z,19.28
2017-08-18T17:19:04.142Z,19.25
2017-08-18T17:21:31.539Z,19.26
2017-08-18T17:23:58.933Z,19.30
2017-08-18T17:26:26.518Z,19.37
2017-08-18T17:28:53.912Z,19.44
2017-08-18T17:31:21.291Z,19.41
2017-08-18T17:33:48.831Z,19.44
2017-08-18T17:36:16.218Z,19.41
2017-08-18T17:38:43.602Z,19.43
2017-08-18T17:41:11.018Z,19.50
2017-08-18T17:43:38.410Z,19.49
2017-08-18T17:46:05.798Z,19.54
2017-08-18T17:48:33.343Z,19.51
2017-08-18T17:51:00.732Z,19.49
2017-08-18T17:53:28.119Z,19.49
2017-08-18T17:55:55.513Z,19.48
2017-08-18T17:58:22.904Z,19.46
2017-08-18T18:00:50.295Z,19.44
2017-08-18T18:03:17.967Z,19.37
2017-08-18T18:05:45.360Z,19.33
2017-08-18T18:08:12.748Z,19.32
2017-08-18T18:10:40.162Z,19.28
2017-08-18T18:13:07.562Z,19.25
2017-08-18T18:15:34.954Z,19.17
2017-08-18T18:18:02.367Z,19.19
2017-08-18T18:20:29.771Z,19.17
2017-08-18T18:22:57.160Z,19.19
2017-08-18T18:25:24.700Z,19.18
2017-08-18T18:27:52.100Z,19.16
2017-08-18T18:30:19.492Z,19.16
2017-08-18T18:32:46.894Z,19.15
2017-08-18T18:35:14.286Z,19.13
2017-08-18T18:37:41.682Z,19.11
2017-08-18T18:40:09.120Z,19.16
2017-08-18T18:42:36.510Z,19.18
2017-08-18T18:45:03.907Z,19.19
2017-08-18T18:47:31.343Z,19.14
2017-08-18T18:49:58.726Z,19.10
2017-08-18T18:52:26.124Z,19.11
2017-08-18T18:54:53.662Z,19.09
2017-08-18T18:57:21.057Z,19.06
2017-08-18T18:59:48.446Z,19.07
2017-08-18T19:02:15.988Z,19.06
2017-08-18T19:04:43.376Z,19.03
2017-08-18T19:07:10.771Z,19.02
2017-08-18T19:09:38.315Z,19.02
2017-08-18T19:12:05.702Z,19.01
2017-08-18T19:14:33.105Z,19.00
2017-08-18T19:17:00.649Z,18.99
2017-08-18T19:19:28.039Z,18.95
2017-08-18T19:21:55.432Z,18.95
2017-08-18T19:24:23.242Z,18.92
2017-08-18T19:26:50.626Z,18.89
2017-08-18T19:29:18.015Z,18.92
2017-08-18T19:31:45.614Z,18.90
2017-08-18T19:34:13.014Z,18.90
2017-08-18T19:36:40.403Z,18.89
2017-08-18T19:39:08.139Z,18.86
2017-08-18T19:41:35.536Z,18.82
2017-08-18T19:44:02.926Z,18.75
2017-08-18T19:46:30.336Z,18.65
2017-08-18T19:48:57.739Z,18.59
2017-08-18T19:51:25.126Z,18.49
2017-08-18T19:53:52.531Z,18.18
2017-08-18T19:56:19.923Z,17.96
2017-08-18T19:58:47.321Z,17.85
2017-08-18T20:01:14.871Z,17.60
2017-08-18T20:03:42.272Z,17.43
2017-08-18T20:06:09.654Z,17.32
2017-08-18T20:08:37.066Z,17.15
2017-08-18T20:11:04.459Z,17.11
2017-08-18T20:13:31.854Z,17.07
2017-08-18T20:15:59.606Z,17.08
2017-08-18T20:18:26.990Z,16.99
2017-08-18T20:20:54.378Z,17.15
2017-08-18T20:23:22.023Z,17.12
2017-08-18T20:25:49.415Z,17.05
2017-08-18T20:28:16.808Z,17.07
2017-08-18T20:30:44.206Z,17.15
2017-08-18T20:33:11.598Z,17.21
2017-08-18T20:35:39.022Z,17.20
2017-08-18T20:38:06.571Z,17.15
2017-08-18T20:40:33.956Z,17.10
2017-08-18T20:43:01.391Z,17.15
2017-08-18T20:45:28.920Z,17.16
2017-08-18T20:47:56.306Z,17.20
2017-08-18T20:50:23.690Z,17.22
2017-08-18T20:52:51.103Z,17.24
2017-08-18T20:55:18.495Z,17.27
2017-08-18T20:57:45.879Z,17.28
2017-08-18T21:00:13.406Z,17.23
2017-08-18T21:02:40.791Z,17.18
2017-08-18T21:05:08.186Z,17.17
2017-08-18T21:07:35.691Z,17.14
2017-08-18T21:10:03.083Z,17.11
2017-08-18T21:12:30.482Z,17.13
2017-08-18T21:14:57.918Z,17.13
2017-08-18T21:17:25.312Z,17.11
2017-08-18T21:19:52.699Z,17.01
2017-08-18T21:22:20.102Z,16.98
2017-08-18T21:24:47.490Z,16.88
2017-08-18T21:27:14.874Z,16.81
2017-08-18T21:29:42.418Z,16.70
2017-08-18T21:32:09.814Z,16.62
2017-08-18T21:34:37.214Z,16.54
2017-08-18T21:37:04.611Z,16.44
2017-08-18T21:39:31.998Z,16.35
2017-08-18T21:41:59.387Z,16.30
2017-08-18T21:44:26.890Z,16.20
2017-08-18T21:46:54.291Z,16.21
2017-08-18T21:49:21.687Z,16.11
2017-08-18T21:51:49.463Z,16.09
2017-08-18T21:54:16.856Z,16.06
2017-08-18T21:56:44.251Z,16.01
2017-08-18T21:59:11.691Z,15.96
2017-08-18T22:01:39.098Z,15.93
2017-08-18T22:04:06.497Z,15.91
2017-08-18T22:06:34.037Z,15.81
2017-08-18T22:09:01.445Z,15.81
2017-08-18T22:11:28.827Z,15.80
2017-08-18T22:13:56.270Z,15.78
2017-08-18T22:16:23.662Z,15.73
2017-08-18T22:18:51.058Z,15.69
2017-08-18T22:21:18.471Z,15.70
2017-08-18T22:23:45.871Z,15.66
2017-08-18T22:26:13.270Z,15.59
2017-08-18T22:28:40.836Z,15.58
2017-08-18T22:31:08.234Z,15.53
2017-08-18T22:33:35.635Z,15.49
2017-08-18T22:36:03.059Z,15.45
2017-08-18T22:38:30.463Z,15.46
2017-08-18T22:40:57.862Z,15.47
2017-08-18T22:43:25.274Z,15.45
2017-08-18T22:45:52.676Z,15.46
2017-08-18T22:48:20.075Z,15.39
2017-08-18T22:50:47.487Z,15.37
2017-08-18T22:53:14.887Z,15.34
2017-08-18T22:55:42.290Z,15.30
2017-08-18T22:58:09.697Z,15.25
2017-08-18T23:00:37.091Z,15.21
2017-08-18T23:03:04.488Z,15.22
2017-08-18T23:05:32.163Z,15.19
2017-08-18T23:07:59.564Z,15.08
2017-08-18T23:10:26.955Z,15.02
2017-08-18T23:12:54.508Z,15.09
2017-08-18T23:15:21.903Z,15.11
2017-08-18T23:17:49.299Z,15.05
2017-08-18T23:20:16.906Z,15.04
2017-08-18T23:22:44.308Z,15.06
2017-08-18T23:25:11.696Z,15.03
2017-08-18T23:27:39.138Z,15.00
2017-08-18T23:30:06.530Z,15.00
2017-08-18T23:32:33.927Z,14.99
2017-08-18T23:35:01.434Z,14.96
2017-08-18T23:37:28.826Z,14.90
2017-08-18T23:39:56.227Z,14.91
2017-08-18T23:42:23.760Z,14.88
2017-08-18T23:44:51.159Z,14.86
2017-08-18T23:47:18.554Z,14.86
2017-08-18T23:49:46.107Z,14.85
2017-08-18T23:52:13.507Z,14.84
2017-08-18T23:54:40.902Z,14.83
2017-08-18T23:57:08.462Z,14.79
2017-08-18T23:59:35.868Z,14.79
